Time;durP1;ratioP1;P1;durP2;ratioP2;P2;SDS_P1;SDS_P2;PMS_P1;PMS_P2;Temp;Humidity;BMP_temperature;BMP_pressure;BME280_temperature;BME280_humidity;BME280_pressure;Samples;Min_cycle;Max_cycle;Signal;HPM_P1;HPM_P2
2022/10/24 00:01:18;;;;;;;18.67;8.83;;;;;;;9.93;100.00;100909.34;1738320;82;21075;-79
2022/10/24 00:03:44;;;;;;;18.73;9.00;;;;;;;9.93;100.00;100902.61;1739670;82;20991;-79
2022/10/24 00:06:12;;;;;;;16.45;8.48;;;;;;;9.92;100.00;100905.84;1745319;81;21560;-81
2022/10/24 00:08:41;;;;;;;18.42;8.53;;;;;;;9.90;100.00;100901.23;1736869;82;21593;-80
2022/10/24 00:11:10;;;;;;;17.90;8.33;;;;;;;9.90;100.00;100906.61;1736397;82;21035;-80
2022/10/24 00:13:37;;;;;;;19.42;8.73;;;;;;;9.86;100.00;100905.48;1734141;82;21320;-80
2022/10/24 00:16:03;;;;;;;16.75;8.15;;;;;;;9.84;100.00;100914.33;1733454;82;22237;-80
2022/10/24 00:18:29;;;;;;;17.82;8.45;;;;;;;9.84;100.00;100917.02;1737313;82;21038;-80
2022/10/24 00:20:56;;;;;;;16.97;7.67;;;;;;;9.82;100.00;100917.78;1740082;81;20895;-80
2022/10/24 00:23:22;;;;;;;15.18;7.55;;;;;;;9.77;100.00;100921.23;1740098;81;21003;-85
2022/10/24 00:25:48;;;;;;;16.67;7.60;;;;;;;9.75;100.00;100918.50;1715775;82;21051;-81
2022/10/24 00:28:14;;;;;;;16.48;7.92;;;;;;;9.72;100.00;100919.81;1740167;82;20876;-80
2022/10/24 00:30:41;;;;;;;16.57;7.45;;;;;;;9.72;100.00;100919.00;1738843;82;21097;-80
2022/10/24 00:33:07;;;;;;;17.65;7.37;;;;;;;9.67;100.00;100921.60;1735389;81;20999;-80
2022/10/24 00:35:33;;;;;;;14.53;7.47;;;;;;;9.68;100.00;100925.94;1736793;81;21086;-80
2022/10/24 00:37:59;;;;;;;15.48;7.75;;;;;;;9.65;100.00;100923.20;1740803;82;21566;-80
2022/10/24 00:40:25;;;;;;;17.35;7.80;;;;;;;9.64;100.00;100922.09;1739501;82;20892;-80
2022/10/24 00:42:51;;;;;;;19.42;8.90;;;;;;;9.63;100.00;100924.51;1740219;82;21577;-80
2022/10/24 00:45:50;;;;;;;16.20;7.90;;;;;;;9.62;100.00;100927.73;1740324;81;21051;-80
2022/10/24 00:48:27;;;;;;;15.80;7.95;;;;;;;9.56;100.00;100928.72;1736496;81;21050;-80
2022/10/24 00:50:58;;;;;;;17.52;7.95;;;;;;;9.53;100.00;100928.67;1737623;82;21151;-80
2022/10/24 00:53:26;;;;;;;16.52;8.23;;;;;;;9.52;100.00;100923.52;1738392;82;21027;-80
2022/10/24 00:55:56;;;;;;;17.90;7.35;;;;;;;9.52;100.00;100931.05;1740137;82;21090;-80
2022/10/24 00:58:27;;;;;;;19.07;8.30;;;;;;;9.55;100.00;100933.80;1739642;82;21582;-80
2022/10/24 01:00:54;;;;;;;19.17;8.10;;;;;;;9.53;100.00;100936.74;1739100;82;21613;-80
2022/10/24 01:03:20;;;;;;;16.55;7.95;;;;;;;9.50;100.00;100933.20;1739258;82;21074;-80
2022/10/24 01:05:54;;;;;;;18.95;7.67;;;;;;;9.50;100.00;100932.36;1735363;82;21038;-80
2022/10/24 01:08:38;;;;;;;16.70;8.13;;;;;;;9.47;100.00;100931.00;1661250;85;21011;-80
2022/10/24 01:11:25;;;;;;;18.55;7.40;;;;;;;9.44;100.00;100934.17;1608131;89;20998;-80
2022/10/24 01:14:20;;;;;;;13.88;6.10;;;;;;;9.36;100.00;100937.26;1602253;87;21099;-80
2022/10/24 01:17:25;;;;;;;16.00;6.65;;;;;;;9.37;100.00;100938.07;1604094;87;21361;-80
2022/10/24 01:20:15;;;;;;;;;;;;;;;9.26;100.00;100938.41;1626142;86;21083;-80
2022/10/24 01:23:05;;;;;;;12.15;6.05;;;;;;;9.19;100.00;100940.45;1620435;87;20165;-80
2022/10/24 01:25:57;;;;;;;13.25;6.03;;;;;;;9.14;100.00;100950.57;1613986;86;21162;-80
2022/10/24 01:28:43;;;;;;;13.43;6.58;;;;;;;9.11;100.00;100944.34;1611959;88;21060;-79
2022/10/24 01:31:15;;;;;;;17.67;6.87;;;;;;;9.09;100.00;100947.28;1608884;87;21595;-79
2022/10/24 01:33:51;;;;;;;14.63;7.20;;;;;;;9.15;100.00;100956.26;1620862;87;21004;-79
2022/10/24 01:36:41;;;;;;;13.48;7.03;;;;;;;9.14;100.00;100955.95;1608348;87;21572;-80
2022/10/24 01:39:12;;;;;;;14.33;7.03;;;;;;;9.17;100.00;100960.03;1629576;87;21170;-80
2022/10/24 01:41:39;;;;;;;14.75;6.97;;;;;;;9.16;100.00;100965.95;1614036;87;21193;-80
2022/10/24 01:44:13;;;;;;;14.55;7.50;;;;;;;9.18;100.00;100967.88;1633938;87;21981;-80
2022/10/24 01:46:47;;;;;;;15.88;7.45;;;;;;;9.19;100.00;100973.53;1641603;86;21536;-80
2022/10/24 01:49:20;;;;;;;19.42;7.60;;;;;;;9.20;100.00;100972.46;1649750;86;21060;-80
2022/10/24 01:51:51;;;;;;;17.12;7.53;;;;;;;9.24;100.00;100975.51;1641318;86;21068;-80
2022/10/24 01:54:18;;;;;;;16.60;7.70;;;;;;;9.23;100.00;100981.39;1646274;86;20953;-80
2022/10/24 01:56:44;;;;;;;16.80;7.90;;;;;;;9.23;100.00;100982.73;1628099;86;21884;-80
2022/10/24 01:59:31;;;;;;;20.77;7.62;;;;;;;9.27;100.00;100985.25;1626724;86;21068;-80
2022/10/24 02:02:20;;;;;;;18.73;7.97;;;;;;;9.30;100.00;100988.80;1649920;86;21607;-80
2022/10/24 02:04:54;;;;;;;19.60;8.20;;;;;;;9.30;100.00;100992.02;1636183;86;21056;-81
2022/10/24 02:07:22;;;;;;;16.65;8.20;;;;;;;9.31;100.00;100992.30;1633981;87;21027;-80
2022/10/24 02:09:53;;;;;;;23.83;8.85;;;;;;;9.33;100.00;100995.57;1704890;83;21793;-80
2022/10/24 02:12:22;;;;;;;16.57;8.25;;;;;;;9.36;100.00;100995.63;1700001;83;21077;-80
2022/10/24 02:14:56;;;;;;;22.42;8.90;;;;;;;9.35;100.00;101001.50;1708380;83;21577;-81
2022/10/24 02:17:23;;;;;;;17.32;8.35;;;;;;;9.40;100.00;101006.98;1704904;83;21161;-80
2022/10/24 02:19:49;;;;;;;19.15;9.13;;;;;;;9.44;100.00;101008.66;1705046;83;21066;-80
2022/10/24 02:22:29;;;;;;;23.98;10.15;;;;;;;9.47;100.00;101007.66;1682216;83;21586;-80
2022/10/24 02:25:09;;;;;;;19.32;8.30;;;;;;;9.49;100.00;101008.22;1702678;83;21522;-80
2022/10/24 02:27:40;;;;;;;19.05;8.05;;;;;;;9.51;100.00;101010.14;1707213;83;21061;-81
2022/10/24 02:30:13;;;;;;;29.95;10.72;;;;;;;9.55;100.00;101003.21;1653159;86;21030;-80
2022/10/24 02:32:41;;;;;;;;;;;;;;;9.60;100.00;101008.41;1655629;86;21568;-80
2022/10/24 02:35:10;;;;;;;25.82;10.05;;;;;;;9.61;100.00;101007.34;1650062;86;21053;-79
2022/10/24 02:37:41;;;;;;;24.60;10.90;;;;;;;9.62;100.00;101013.00;1651802;86;21173;-80
2022/10/24 02:40:11;;;;;;;26.48;9.65;;;;;;;9.64;100.00;101018.43;1652204;86;21154;-80
2022/10/24 02:42:39;;;;;;;27.02;10.63;;;;;;;9.69;100.00;101019.06;1657353;84;21586;-77
2022/10/24 02:45:08;;;;;;;23.02;10.72;;;;;;;9.74;100.00;101021.84;1681858;84;21491;-80
2022/10/24 02:47:35;;;;;;;28.25;10.63;;;;;;;9.75;100.00;101018.89;1680161;85;22108;-80
2022/10/24 02:50:01;;;;;;;30.30;12.03;;;;;;;9.76;100.00;101017.85;1654741;84;21057;-80
2022/10/24 02:52:29;;;;;;;31.42;11.48;;;;;;;9.79;100.00;101020.56;1678768;84;20984;-80
2022/10/24 02:54:55;;;;;;;28.27;12.88;;;;;;;9.79;100.00;101023.25;1680156;85;21075;-80
2022/10/24 02:57:22;;;;;;;30.75;12.65;;;;;;;9.81;100.00;101023.02;1680782;85;21015;-81
2022/10/24 02:59:48;;;;;;;32.28;11.97;;;;;;;9.82;100.00;101019.27;1681517;84;21115;-80
2022/10/24 03:02:15;;;;;;;32.25;11.85;;;;;;;9.85;100.00;101025.50;1680981;84;21063;-80
2022/10/24 03:04:41;;;;;;;31.02;12.07;;;;;;;9.87;100.00;101024.73;1680340;84;21012;-80
2022/10/24 03:07:07;;;;;;;36.05;13.25;;;;;;;9.89;100.00;101022.63;1679630;84;20980;-80
2022/10/24 03:09:33;;;;;;;33.20;12.30;;;;;;;9.91;100.00;101025.36;1679046;84;21067;-80
2022/10/24 03:12:00;;;;;;;34.03;12.82;;;;;;;9.94;100.00;101022.69;1680626;84;21160;-80
2022/10/24 03:14:26;;;;;;;36.00;11.70;;;;;;;9.96;100.00;101025.95;1680646;84;21007;-80
2022/10/24 03:16:52;;;;;;;33.25;11.95;;;;;;;9.97;100.00;101027.58;1678948;84;21588;-80
2022/10/24 03:19:18;;;;;;;40.45;12.53;;;;;;;9.99;100.00;101026.27;1680284;84;20951;-79
2022/10/24 03:21:44;;;;;;;32.00;12.18;;;;;;;10.02;100.00;101022.28;1680252;84;21578;-80
2022/10/24 03:24:11;;;;;;;32.58;13.08;;;;;;;10.03;100.00;101021.75;1680711;84;21696;-80
2022/10/24 03:26:36;;;;;;;40.08;12.95;;;;;;;10.05;100.00;101022.33;1700764;82;21153;-80
2022/10/24 03:29:02;;;;;;;33.28;12.65;;;;;;;10.06;100.00;101026.64;1736039;82;20860;-80
2022/10/24 03:31:30;;;;;;;40.00;12.80;;;;;;;10.08;100.00;101021.83;1735008;82;20892;-80
2022/10/24 03:33:57;;;;;;;38.70;13.18;;;;;;;10.11;100.00;101024.03;1740120;82;21495;-80
2022/10/24 03:36:23;;;;;;;39.03;13.15;;;;;;;10.07;100.00;101027.75;1739314;82;21362;-80
2022/10/24 03:38:49;;;;;;;36.70;13.15;;;;;;;10.08;100.00;101029.91;1738964;82;21570;-80
2022/10/24 03:41:15;;;;;;;41.33;13.75;;;;;;;10.10;100.00;101031.84;1738998;82;20998;-80
2022/10/24 03:43:41;;;;;;;32.33;12.33;;;;;;;10.12;100.00;101031.08;1735827;82;20899;-79
2022/10/24 03:46:07;;;;;;;37.90;13.20;;;;;;;10.13;100.00;101034.04;1737414;82;21687;-80
2022/10/24 03:48:33;;;;;;;41.60;13.35;;;;;;;10.14;100.00;101038.36;1739346;82;21088;-80
2022/10/24 03:50:59;;;;;;;38.28;13.55;;;;;;;10.14;100.00;101033.78;1739401;82;21042;-80
2022/10/24 03:53:25;;;;;;;39.20;13.80;;;;;;;10.15;100.00;101030.05;1738613;81;20896;-80
2022/10/24 03:55:51;;;;;;;35.75;13.10;;;;;;;10.14;100.00;101031.62;1739213;81;20923;-80
2022/10/24 03:58:17;;;;;;;38.13;13.08;;;;;;;10.17;100.00;101031.94;1747869;81;21005;-80
2022/10/24 04:00:43;;;;;;;42.40;13.30;;;;;;;10.19;100.00;101035.21;1747485;80;21027;-80
2022/10/24 04:03:09;;;;;;;31.42;12.33;;;;;;;10.19;100.00;101034.40;1747436;81;20895;-80
2022/10/24 04:05:36;;;;;;;35.90;12.28;;;;;;;10.20;100.00;101036.83;1738188;82;21510;-80
2022/10/24 04:08:02;;;;;;;37.55;12.53;;;;;;;10.20;100.00;101036.83;1740022;82;20967;-80
2022/10/24 04:10:29;;;;;;;40.35;12.40;;;;;;;10.21;100.00;101039.02;1738585;82;21129;-80
2022/10/24 04:12:55;;;;;;;34.50;11.95;;;;;;;10.22;100.00;101044.14;1735523;82;21118;-80
2022/10/24 04:15:21;;;;;;;33.58;12.47;;;;;;;10.23;100.00;101042.27;1737834;82;20983;-80
2022/10/24 04:17:47;;;;;;;34.75;11.55;;;;;;;10.24;100.00;101046.07;1739061;82;21566;-80
2022/10/24 04:20:18;;;;;;;30.08;11.73;;;;;;;10.26;100.00;101049.03;1738172;82;20868;-80
2022/10/24 04:22:41;;;;;;;32.88;12.00;;;;;;;10.27;100.00;101050.19;1735171;82;20991;-79
2022/10/24 04:25:07;;;;;;;33.25;11.68;;;;;;;10.28;100.00;101043.72;1738803;82;21660;-80
2022/10/24 04:27:35;;;;;;;40.05;11.88;;;;;;;10.29;100.00;101053.96;1739932;82;21281;-80
2022/10/24 04:30:01;;;;;;;32.48;11.97;;;;;;;10.31;100.00;101052.66;1738778;82;20976;-80
2022/10/24 04:32:29;;;;;;;31.60;12.25;;;;;;;10.32;100.00;101054.81;1715587;82;20951;-80
2022/10/24 04:34:55;;;;;;;32.28;10.98;;;;;;;10.35;100.00;101055.66;1740129;82;21429;-81
2022/10/24 04:37:20;;;;;;;27.32;10.60;;;;;;;10.39;100.00;101058.17;1739191;82;21031;-81
2022/10/24 04:39:46;;;;;;;27.77;10.63;;;;;;;10.41;100.00;101056.02;1739928;82;21601;-80
2022/10/24 04:42:12;;;;;;;31.00;10.80;;;;;;;10.40;100.00;101057.91;1739245;82;20930;-80
2022/10/24 04:44:38;;;;;;;26.30;10.88;;;;;;;10.41;100.00;101059.56;1740039;82;21593;-80
2022/10/24 04:47:04;;;;;;;26.82;9.80;;;;;;;10.42;100.00;101057.14;1738120;82;20971;-80
2022/10/24 04:49:30;;;;;;;27.35;9.18;;;;;;;10.45;100.00;101057.99;1737897;81;21157;-81
2022/10/24 04:51:56;;;;;;;24.25;10.08;;;;;;;10.49;100.00;101062.88;1739252;82;21018;-81
2022/10/24 04:54:22;;;;;;;22.67;9.00;;;;;;;10.50;100.00;101063.16;1739567;82;20892;-80
2022/10/24 04:56:48;;;;;;;27.75;9.10;;;;;;;10.53;100.00;101064.84;1739325;81;21577;-80
2022/10/24 04:59:14;;;;;;;22.93;9.18;;;;;;;10.57;100.00;101071.90;1738241;82;20908;-80
2022/10/24 05:01:40;;;;;;;25.77;9.03;;;;;;;10.59;100.00;101069.75;1735082;82;21992;-80
2022/10/24 05:04:07;;;;;;;26.70;8.40;;;;;;;10.60;100.00;101074.91;1739379;82;20840;-81
2022/10/24 05:06:33;;;;;;;23.47;9.33;;;;;;;10.66;100.00;101081.19;1718736;81;21050;-81
2022/10/24 05:08:59;;;;;;;25.05;9.38;;;;;;;10.73;100.00;101087.74;1769872;80;21003;-81
2022/10/24 05:11:26;;;;;;;19.98;9.43;;;;;;;10.79;100.00;101089.44;1772919;79;21783;-80
2022/10/24 05:13:52;;;;;;;20.25;8.70;;;;;;;10.85;100.00;101090.63;1770404;80;21067;-81
2022/10/24 05:16:18;;;;;;;18.75;8.33;;;;;;;10.91;100.00;101099.07;1773002;80;21023;-80
2022/10/24 05:18:44;;;;;;;27.15;10.13;;;;;;;11.00;100.00;101109.41;1770316;80;20987;-80
2022/10/24 05:21:09;;;;;;;20.60;8.98;;;;;;;11.04;100.00;101107.86;1769960;79;20939;-81
2022/10/24 05:23:35;;;;;;;21.02;8.28;;;;;;;11.12;100.00;101110.94;1771824;80;20971;-80
2022/10/24 05:26:01;;;;;;;21.33;8.70;;;;;;;11.14;100.00;101118.76;1770055;80;22334;-81
2022/10/24 05:28:27;;;;;;;28.75;8.38;;;;;;;11.18;100.00;101125.81;1770707;80;20928;-78
2022/10/24 05:30:53;;;;;;;16.87;7.80;;;;;;;11.20;100.00;101128.55;1770346;80;20948;-80
2022/10/24 05:33:19;;;;;;;22.40;7.85;;;;;;;11.19;100.00;101128.81;1770560;79;20940;-79
2022/10/24 05:35:45;;;;;;;20.85;8.23;;;;;;;11.21;100.00;101135.59;1771947;79;21475;-81
2022/10/24 05:38:11;;;;;;;15.85;7.55;;;;;;;11.23;100.00;101134.79;1771649;80;21110;-77
2022/10/24 05:40:37;;;;;;;19.57;8.53;;;;;;;11.26;100.00;101140.22;1771321;79;20947;-81
2022/10/24 05:43:03;;;;;;;20.00;7.70;;;;;;;11.25;100.00;101139.95;1769918;80;21041;-81
2022/10/24 05:45:29;;;;;;;20.10;7.78;;;;;;;11.27;100.00;101137.83;1770170;80;20849;-82
2022/10/24 05:47:55;;;;;;;20.52;8.55;;;;;;;11.23;100.00;101134.79;1769975;80;20861;-81
2022/10/24 05:50:21;;;;;;;20.02;8.73;;;;;;;11.21;100.00;101143.69;1770495;80;21056;-81
2022/10/24 05:52:47;;;;;;;18.32;7.95;;;;;;;11.21;100.00;101140.17;1745411;80;21608;-78
2022/10/24 05:55:14;;;;;;;17.65;7.33;;;;;;;11.23;100.00;101141.53;1771655;80;21065;-81
2022/10/24 05:57:40;;;;;;;23.30;7.72;;;;;;;11.29;100.00;101148.63;1770121;80;20988;-81
2022/10/24 06:02:40;;;;;;;21.97;8.10;;;;;;;11.34;100.00;101150.05;1701093;83;21019;-82
2022/10/24 06:05:08;;;;;;;20.20;7.92;;;;;;;11.39;100.00;101147.95;1704734;82;21048;-83
2022/10/24 06:07:34;;;;;;;15.38;7.58;;;;;;;11.44;100.00;101153.42;1707514;82;20982;-82
2022/10/24 06:10:02;;;;;;;20.80;7.30;;;;;;;11.43;100.00;101140.97;1702259;82;20999;-83
2022/10/24 06:12:28;;;;;;;19.32;7.78;;;;;;;11.55;100.00;101151.64;1695077;83;21003;-83
2022/10/24 06:14:58;;;;;;;16.20;7.28;;;;;;;11.60;100.00;101155.22;1694893;82;21251;-83
2022/10/24 06:17:27;;;;;;;16.48;7.47;;;;;;;11.66;100.00;101156.09;1709871;82;21105;-84
2022/10/24 06:19:56;;;;;;;16.70;7.42;;;;;;;11.72;100.00;101159.13;1667560;85;21048;-83
2022/10/24 06:22:26;;;;;;;17.77;7.22;;;;;;;11.86;100.00;101155.53;1666182;85;21194;-81
2022/10/24 06:24:51;;;;;;;13.03;6.80;;;;;;;12.17;100.00;101151.22;1643428;86;21018;-82
2022/10/24 06:27:17;;;;;;;15.28;7.03;;;;;;;12.54;100.00;101151.00;1646981;86;21117;-83
2022/10/24 06:29:43;;;;;;;133.75;9.93;;;;;;;13.67;100.00;101151.86;1645662;86;21049;-84
2022/10/24 06:32:09;;;;;;;14.83;6.03;;;;;;;15.74;100.00;101158.45;1641094;86;21116;-85
2022/10/24 06:34:36;;;;;;;148.87;9.45;;;;;;;17.44;100.00;101143.03;1644513;85;21170;-82
2022/10/24 06:37:02;;;;;;;52.30;7.15;;;;;;;18.21;100.00;101140.58;1645758;86;21009;-82
2022/10/24 06:39:28;;;;;;;12.18;5.58;;;;;;;19.13;100.00;101144.97;1608411;88;21083;-84
2022/10/24 06:41:55;;;;;;;262.93;11.93;;;;;;;19.65;100.00;101147.72;1645024;86;21066;-83
2022/10/24 06:44:21;;;;;;;9.23;5.20;;;;;;;20.70;100.00;101143.02;1596118;88;21603;-82
2022/10/24 06:46:47;;;;;;;8.13;5.22;;;;;;;21.21;100.00;101136.14;1597604;86;20890;-82
2022/10/24 06:49:13;;;;;;;7.87;4.97;;;;;;;21.48;100.00;101129.05;1608772;88;20890;-80
2022/10/24 06:51:40;;;;;;;8.95;4.78;;;;;;;20.60;100.00;101140.80;1599898;88;21158;-81
2022/10/24 06:54:06;;;;;;;8.55;5.00;;;;;;;19.87;100.00;101138.73;1653032;85;21036;-83
2022/10/24 06:56:32;;;;;;;8.40;4.28;;;;;;;19.97;100.00;101143.15;1646709;85;21090;-76
2022/10/24 06:58:59;;;;;;;8.85;4.58;;;;;;;20.70;100.00;101130.12;1656272;84;21054;-82
2022/10/24 07:01:26;;;;;;;11.10;4.80;;;;;;;21.18;100.00;101137.59;1651818;86;20989;-83
2022/10/24 07:03:53;;;;;;;33.13;5.22;;;;;;;22.91;100.00;101134.52;1650963;85;21329;-83
2022/10/24 07:06:26;;;;;;;8.30;4.28;;;;;;;24.10;100.00;101128.94;1676954;84;21043;-83
2022/10/24 07:08:56;;;;;;;6.40;4.03;;;;;;;24.70;100.00;101118.65;1669145;84;21098;-82
2022/10/24 07:11:23;;;;;;;9.65;4.08;;;;;;;24.14;100.00;101123.77;1667543;83;21039;-83
2022/10/24 07:13:49;;;;;;;6.65;4.30;;;;;;;23.07;100.00;101115.00;1669790;84;21120;-82
2022/10/24 07:16:15;;;;;;;5.12;3.55;;;;;;;23.51;100.00;101126.54;1678438;83;21138;-80
2022/10/24 07:18:41;;;;;;;7.12;3.95;;;;;;;23.80;100.00;101119.40;1681592;83;21105;-82
2022/10/24 07:21:14;;;;;;;7.17;3.62;;;;;;;23.57;100.00;101114.19;1718640;80;21059;-82
2022/10/24 07:23:40;;;;;;;6.50;4.05;;;;;;;23.74;100.00;101120.75;1751078;79;21023;-83
2022/10/24 07:26:10;;;;;;;6.08;3.80;;;;;;;23.52;100.00;101121.27;1766331;79;21101;-83
2022/10/24 07:28:38;;;;;;;5.78;3.60;;;;;;;24.40;100.00;101129.02;1762329;80;21112;-80
2022/10/24 07:31:06;;;;;;;9.20;3.60;;;;;;;25.56;100.00;101117.81;1770244;80;21047;-80
2022/10/24 07:33:33;;;;;;;6.90;3.52;;;;;;;25.64;97.20;101116.88;1741546;80;21065;-80
2022/10/24 07:35:59;;;;;;;6.83;4.47;;;;;;;26.33;100.00;101114.91;1737167;79;21443;-83
2022/10/24 07:38:25;;;;;;;5.22;3.85;;;;;;;25.90;90.32;101119.25;1762985;80;21020;-80
2022/10/24 07:40:51;;;;;;;4.92;3.77;;;;;;;24.40;84.42;101131.77;1765270;79;21896;-78
2022/10/24 07:43:18;;;;;;;5.83;3.85;;;;;;;23.01;78.50;101125.15;1753386;79;21137;-79
2022/10/24 07:45:44;;;;;;;8.28;4.05;;;;;;;22.53;77.92;101127.63;1767063;80;21176;-78
2022/10/24 07:48:11;;;;;;;5.83;3.62;;;;;;;21.25;88.72;101139.86;1762775;80;21011;-80
2022/10/24 07:50:46;;;;;;;7.03;3.60;;;;;;;20.28;98.31;101142.42;1761051;80;21039;-83
2022/10/24 07:53:13;;;;;;;7.45;4.17;;;;;;;19.59;100.00;101143.45;1758337;80;21496;-85
2022/10/24 07:55:41;;;;;;;9.18;3.85;;;;;;;19.07;100.00;101138.79;1762678;80;20991;-81
2022/10/24 07:58:08;;;;;;;8.88;3.85;;;;;;;18.94;100.00;101142.31;1755506;80;21337;-86
2022/10/24 08:00:35;;;;;;;7.40;3.83;;;;;;;19.11;100.00;101147.98;1769735;80;20998;-83
2022/10/24 08:03:02;;;;;;;8.55;3.75;;;;;;;19.12;100.00;101149.63;1769067;80;21670;-84
2022/10/24 08:05:28;;;;;;;5.40;3.27;;;;;;;20.06;100.00;101156.90;1770765;80;21067;-84
2022/10/24 08:07:55;;;;;;;6.70;3.70;;;;;;;19.73;100.00;101157.91;1770104;80;21023;-83
2022/10/24 08:10:21;;;;;;;6.05;3.12;;;;;;;19.39;100.00;101152.89;1740646;81;21003;-84
2022/10/24 08:12:47;;;;;;;8.15;3.30;;;;;;;20.27;100.00;101149.03;1768342;79;21165;-83
2022/10/24 08:15:13;;;;;;;4.20;2.80;;;;;;;19.71;100.00;101153.89;1768303;79;21062;-83
2022/10/24 08:17:39;;;;;;;4.37;3.15;;;;;;;19.66;100.00;101153.99;1768884;80;21834;-83
2022/10/24 08:20:07;;;;;;;9.10;2.87;;;;;;;20.18;100.00;101159.35;1768928;81;21027;-84
2022/10/24 08:22:34;;;;;;;4.83;2.90;;;;;;;21.30;100.00;101147.94;1768049;80;21149;-84
2022/10/24 08:25:04;;;;;;;7.83;3.37;;;;;;;21.87;100.00;101156.68;1768428;79;21091;-84
2022/10/24 08:27:30;;;;;;;5.58;3.20;;;;;;;21.60;97.44;101153.11;1768288;80;21016;-84
2022/10/24 08:29:56;;;;;;;5.12;3.17;;;;;;;21.36;98.19;101154.92;1768535;79;21893;-84
2022/10/24 08:32:22;;;;;;;4.55;3.02;;;;;;;20.84;96.60;101147.84;1769581;80;20988;-84
2022/10/24 08:34:48;;;;;;;7.12;3.17;;;;;;;20.25;95.45;101172.59;1771133;80;21574;-84
2022/10/24 08:37:14;;;;;;;5.97;3.05;;;;;;;19.51;94.42;101158.64;1742078;80;20836;-84
2022/10/24 08:39:40;;;;;;;6.10;2.98;;;;;;;18.79;100.00;101158.43;1738583;81;20875;-84
2022/10/24 08:42:12;;;;;;;7.15;2.70;;;;;;;18.37;100.00;101165.69;1740104;81;22135;-84
2022/10/24 08:44:43;;;;;;;7.00;3.30;;;;;;;18.00;100.00;101163.27;1735288;82;21011;-84
2022/10/24 08:47:34;;;;;;;7.55;3.10;;;;;;;17.64;100.00;101161.56;1680285;84;21153;-84
2022/10/24 08:50:30;;;;;;;5.17;2.58;;;;;;;17.51;100.00;101164.46;1680290;84;21078;-83
2022/10/24 08:53:07;;;;;;;6.15;2.70;;;;;;;17.69;100.00;101165.59;1677013;85;21078;-84
2022/10/24 08:55:52;;;;;;;4.55;2.55;;;;;;;17.77;100.00;101179.13;1681726;84;21204;-84
2022/10/24 08:58:29;;;;;;;8.33;2.80;;;;;;;17.58;100.00;101181.25;1680881;84;21032;-84
2022/10/24 09:00:59;;;;;;;5.75;3.10;;;;;;;17.47;100.00;101183.31;1599983;89;21537;-83
2022/10/24 09:03:45;;;;;;;6.22;2.80;;;;;;;17.10;100.00;101175.03;1600573;87;21087;-84
2022/10/24 09:06:21;;;;;;;6.20;2.85;;;;;;;17.01;100.00;101174.30;1602771;88;21099;-85
2022/10/24 09:09:20;;;;;;;7.75;2.80;;;;;;;16.89;100.00;101184.78;1604700;87;21160;-85
2022/10/24 09:11:56;;;;;;;5.58;3.00;;;;;;;16.98;100.00;101184.41;1604034;87;21011;-84
2022/10/24 09:14:33;;;;;;;4.37;3.12;;;;;;;16.92;100.00;101188.84;1566699;89;21046;-81
2022/10/24 09:20:32;;;;;;;3.45;2.40;;;;;;;16.66;100.00;101191.77;1551012;91;21102;-81
2022/10/24 09:23:03;;;;;;;14.75;3.70;;;;;;;16.39;100.00;101205.06;1569653;91;21151;-83
2022/10/24 09:25:34;;;;;;;6.00;2.62;;;;;;;16.27;100.00;101210.30;1550327;91;21113;-82
2022/10/24 09:28:04;;;;;;;4.53;2.80;;;;;;;16.08;100.00;101214.22;1569749;90;21180;-84
2022/10/24 09:30:31;;;;;;;5.10;3.08;;;;;;;15.77;100.00;101213.59;1570417;91;21096;-83
2022/10/24 09:33:01;;;;;;;3.87;2.47;;;;;;;15.64;100.00;101212.24;1570814;89;21058;-83
2022/10/24 09:35:29;;;;;;;5.60;2.42;;;;;;;15.75;100.00;101207.61;1571520;89;21125;-82
2022/10/24 09:37:58;;;;;;;4.72;2.67;;;;;;;15.88;100.00;101208.90;1569833;89;20931;-82
2022/10/24 09:40:28;;;;;;;4.72;2.30;;;;;;;15.88;100.00;101206.18;1569795;90;21123;-83
2022/10/24 09:43:17;;;;;;;5.65;2.50;;;;;;;15.80;100.00;101199.45;1568378;89;21077;-82
2022/10/24 09:45:50;;;;;;;3.17;2.08;;;;;;;15.64;100.00;101200.56;1590798;88;21154;-81
2022/10/24 09:48:31;;;;;;;4.47;2.33;;;;;;;15.53;100.00;101200.34;1568614;90;22016;-83
2022/10/24 09:50:59;;;;;;;6.80;2.77;;;;;;;15.57;100.00;101207.66;1580513;88;21047;-82
2022/10/24 09:53:32;;;;;;;7.28;2.52;;;;;;;15.61;100.00;101213.35;1601615;88;21065;-81
2022/10/24 09:56:09;;;;;;;6.72;2.60;;;;;;;15.62;100.00;101213.09;1626016;86;21102;-83
2022/10/24 09:58:35;;;;;;;6.72;2.70;;;;;;;15.67;100.00;101210.88;1635644;86;21031;-81
2022/10/24 10:01:06;;;;;;;4.30;2.25;;;;;;;15.72;100.00;101212.25;1667254;84;21196;-82
2022/10/24 10:03:34;;;;;;;5.33;2.92;;;;;;;15.77;100.00;101210.88;1674638;84;21034;-82
2022/10/24 10:06:19;;;;;;;6.30;2.52;;;;;;;15.81;100.00;101212.48;1678002;85;21557;-83
2022/10/24 10:08:55;;;;;;;5.83;2.70;;;;;;;15.97;100.00;101214.04;1681529;84;21054;-83
2022/10/24 10:11:31;;;;;;;8.20;2.95;;;;;;;16.11;100.00;101212.30;1677628;83;21111;-84
2022/10/24 10:14:00;;;;;;;3.70;2.65;;;;;;;16.10;100.00;101205.24;1681136;83;21844;-83
2022/10/24 10:16:36;;;;;;;5.37;3.20;;;;;;;16.03;100.00;101216.16;1680729;83;20936;-85
2022/10/24 10:19:07;;;;;;;4.00;2.62;;;;;;;16.03;100.00;101205.28;1680110;84;21126;-85
2022/10/24 10:22:04;;;;;;;5.12;2.75;;;;;;;15.87;100.00;101206.73;1653844;85;21034;-82
2022/10/24 10:24:40;;;;;;;4.97;2.92;;;;;;;15.84;100.00;101211.38;1666103;85;21093;-85
2022/10/24 10:27:37;;;;;;;4.67;2.72;;;;;;;15.82;100.00;101215.45;1666474;85;21606;-85
2022/10/24 10:30:17;;;;;;;5.50;2.80;;;;;;;15.66;100.00;101220.13;1601628;88;21676;-83
2022/10/24 10:33:21;;;;;;;5.12;2.85;;;;;;;15.57;100.00;101225.33;1579902;89;21116;-84
2022/10/24 10:36:08;;;;;;;7.28;2.50;;;;;;;15.39;100.00;101230.82;1583176;89;21120;-84
2022/10/24 10:39:02;;;;;;;5.03;2.42;;;;;;;15.09;100.00;101239.02;1585837;89;21524;-84
2022/10/24 10:41:53;;;;;;;5.92;2.72;;;;;;;15.09;100.00;101239.02;1546842;90;21172;-82
2022/10/24 10:44:27;;;;;;;5.35;2.77;;;;;;;15.17;100.00;101241.19;1583504;88;21038;-88
2022/10/24 10:47:21;;;;;;;4.85;2.87;;;;;;;15.17;100.00;101241.19;1593603;88;21117;-87
2022/10/24 10:49:52;;;;;;;4.65;2.60;;;;;;;15.19;100.00;101243.09;1599497;87;21123;-85
2022/10/24 10:52:32;;;;;;;4.47;2.05;;;;;;;15.13;100.00;101237.41;1599110;88;21455;-84
2022/10/24 10:55:21;;;;;;;5.00;2.30;;;;;;;15.25;100.00;101240.63;1576069;89;21976;-86
2022/10/24 10:58:13;;;;;;;3.15;2.27;;;;;;;15.34;100.00;101238.17;1583181;88;21587;-85
2022/10/24 11:00:48;;;;;;;3.62;2.22;;;;;;;15.42;100.00;101237.06;1595300;87;21049;-83
2022/10/24 11:03:43;;;;;;;4.08;2.30;;;;;;;15.40;100.00;101239.23;1561268;90;21074;-84
2022/10/24 11:06:25;;;;;;;4.03;2.17;;;;;;;15.29;100.00;101240.89;1578537;90;21070;-85
2022/10/24 11:09:28;;;;;;;5.95;2.47;;;;;;;15.26;100.00;101250.95;1606508;88;21134;-85
2022/10/24 11:12:03;;;;;;;6.25;2.45;;;;;;;15.25;100.00;101248.78;1602656;88;21063;-87
2022/10/24 11:14:42;;;;;;;4.08;2.60;;;;;;;15.22;100.00;101254.77;1589997;88;21092;-85
2022/10/24 11:17:37;;;;;;;8.40;3.50;;;;;;;15.17;100.00;101247.97;1589764;88;21337;-84
2022/10/24 11:20:21;;;;;;;6.17;2.85;;;;;;;15.15;100.00;101243.38;1617034;88;21028;-87
2022/10/24 11:23:06;;;;;;;4.85;2.92;;;;;;;15.14;100.00;101241.73;1593080;88;21967;-87
2022/10/24 11:25:38;;;;;;;5.28;2.85;;;;;;;15.11;100.00;101242.28;1589997;89;22301;-86
2022/10/24 11:28:09;;;;;;;5.72;2.80;;;;;;;15.08;100.00;101238.21;1581575;90;21114;-84
2022/10/24 11:30:52;;;;;;;6.35;2.85;;;;;;;15.11;100.00;101247.16;1594753;88;21108;-86
2022/10/24 11:33:23;;;;;;;7.53;2.62;;;;;;;15.10;100.00;101242.03;1581130;89;21109;-85
2022/10/24 11:36:04;;;;;;;4.50;2.17;;;;;;;15.03;100.00;101248.27;1569422;91;22196;-83
2022/10/24 11:38:35;;;;;;;3.90;2.15;;;;;;;15.01;100.00;101247.20;1558367;92;21498;-85